sensor_id;sensor_type;location;lat;lon;timestamp;P1;P2;P0
77538;PMS7003;67783;51.656;16.106;2024-02-21T00:00:54;1;1;0
77538;PMS7003;67783;51.656;16.106;2024-02-21T00:04:01;1;0;0
77538;PMS7003;67783;51.656;16.106;2024-02-21T00:07:10;2;0;0
77538;PMS7003;67783;51.656;16.106;2024-02-21T00:10:12;1;1;0
77538;PMS7003;67783;51.656;16.106;2024-02-21T00:13:13;2;1;0
77538;PMS7003;67783;51.656;16.106;2024-02-21T00:16:15;0;0;0
77538;PMS7003;67783;51.656;16.106;2024-02-21T00:19:17;1;1;0
77538;PMS7003;67783;51.656;16.106;2024-02-21T00:22:19;0;0;0
77538;PMS7003;67783;51.656;16.106;2024-02-21T00:25:20;0;0;0
77538;PMS7003;67783;51.656;16.106;2024-02-21T00:28:25;1;1;0
77538;PMS7003;67783;51.656;16.106;2024-02-21T00:31:27;1;1;0
77538;PMS7003;67783;51.656;16.106;2024-02-21T00:34:28;0;0;0
77538;PMS7003;67783;51.656;16.106;2024-02-21T00:37:31;1;1;1
77538;PMS7003;67783;51.656;16.106;2024-02-21T00:40:32;2;2;1
77538;PMS7003;67783;51.656;16.106;2024-02-21T00:43:35;1;1;1
77538;PMS7003;67783;51.656;16.106;2024-02-21T00:46:36;0;0;0
77538;PMS7003;67783;51.656;16.106;2024-02-21T00:49:41;0;0;0
77538;PMS7003;67783;51.656;16.106;2024-02-21T00:52:43;0;0;0
77538;PMS7003;67783;51.656;16.106;2024-02-21T00:55:45;1;1;0
77538;PMS7003;67783;51.656;16.106;2024-02-21T00:58:47;1;0;0
77538;PMS7003;67783;51.656;16.106;2024-02-21T01:01:48;1;0;0
77538;PMS7003;67783;51.656;16.106;2024-02-21T01:04:50;1;1;0
77538;PMS7003;67783;51.656;16.106;2024-02-21T01:07:51;1;1;0
77538;PMS7003;67783;51.656;16.106;2024-02-21T01:10:56;0;0;0
77538;PMS7003;67783;51.656;16.106;2024-02-21T01:13:58;1;1;1
77538;PMS7003;67783;51.656;16.106;2024-02-21T01:16:59;1;1;1
77538;PMS7003;67783;51.656;16.106;2024-02-21T01:20:02;3;0;0
77538;PMS7003;67783;51.656;16.106;2024-02-21T01:23:06;1;0;0
77538;PMS7003;67783;51.656;16.106;2024-02-21T01:26:17;1;1;0
77538;PMS7003;67783;51.656;16.106;2024-02-21T01:29:19;0;0;0
77538;PMS7003;67783;51.656;16.106;2024-02-21T01:32:21;1;1;0
77538;PMS7003;67783;51.656;16.106;2024-02-21T01:35:25;0;0;0
77538;PMS7003;67783;51.656;16.106;2024-02-21T01:38:27;2;0;0
77538;PMS7003;67783;51.656;16.106;2024-02-21T01:41:38;0;0;0
77538;PMS7003;67783;51.656;16.106;2024-02-21T01:44:39;0;0;0
77538;PMS7003;67783;51.656;16.106;2024-02-21T01:47:42;0;0;0
77538;PMS7003;67783;51.656;16.106;2024-02-21T01:50:44;1;1;0
77538;PMS7003;67783;51.656;16.106;2024-02-21T01:53:46;1;0;0
77538;PMS7003;67783;51.656;16.106;2024-02-21T01:56:58;0;0;0
77538;PMS7003;67783;51.656;16.106;2024-02-21T02:00:00;0;0;0
77538;PMS7003;67783;51.656;16.106;2024-02-21T02:03:02;0;0;0
77538;PMS7003;67783;51.656;16.106;2024-02-21T02:06:05;2;1;1
77538;PMS7003;67783;51.656;16.106;2024-02-21T02:09:07;2;1;1
77538;PMS7003;67783;51.656;16.106;2024-02-21T02:12:19;1;0;0
77538;PMS7003;67783;51.656;16.106;2024-02-21T02:15:20;1;0;0
77538;PMS7003;67783;51.656;16.106;2024-02-21T02:18:22;1;1;0
77538;PMS7003;67783;51.656;16.106;2024-02-21T02:24:34;2;0;0
77538;PMS7003;67783;51.656;16.106;2024-02-21T02:27:42;2;0;0
77538;PMS7003;67783;51.656;16.106;2024-02-21T02:30:47;1;1;0
77538;PMS7003;67783;51.656;16.106;2024-02-21T02:33:49;0;0;0
77538;PMS7003;67783;51.656;16.106;2024-02-21T02:36:51;1;1;1
77538;PMS7003;67783;51.656;16.106;2024-02-21T02:39:52;1;1;0
77538;PMS7003;67783;51.656;16.106;2024-02-21T02:43:00;2;2;0
77538;PMS7003;67783;51.656;16.106;2024-02-21T02:46:02;1;1;0
77538;PMS7003;67783;51.656;16.106;2024-02-21T02:49:04;2;1;0
77538;PMS7003;67783;51.656;16.106;2024-02-21T02:52:06;0;0;0
77538;PMS7003;67783;51.656;16.106;2024-02-21T02:55:08;1;1;0
77538;PMS7003;67783;51.656;16.106;2024-02-21T02:58:10;1;1;0
77538;PMS7003;67783;51.656;16.106;2024-02-21T03:01:11;1;1;0
77538;PMS7003;67783;51.656;16.106;2024-02-21T03:04:16;0;0;0
77538;PMS7003;67783;51.656;16.106;2024-02-21T03:07:17;1;1;0
77538;PMS7003;67783;51.656;16.106;2024-02-21T03:10:19;0;0;0
77538;PMS7003;67783;51.656;16.106;2024-02-21T03:13:20;0;0;0
77538;PMS7003;67783;51.656;16.106;2024-02-21T03:16:22;0;0;0
77538;PMS7003;67783;51.656;16.106;2024-02-21T03:19:24;2;2;0
77538;PMS7003;67783;51.656;16.106;2024-02-21T03:22:26;1;1;1
77538;PMS7003;67783;51.656;16.106;2024-02-21T03:25:31;2;1;0
77538;PMS7003;67783;51.656;16.106;2024-02-21T03:28:32;0;0;0
77538;PMS7003;67783;51.656;16.106;2024-02-21T03:31:34;0;0;0
77538;PMS7003;67783;51.656;16.106;2024-02-21T03:34:36;0;0;0
77538;PMS7003;67783;51.656;16.106;2024-02-21T03:37:37;1;0;0
77538;PMS7003;67783;51.656;16.106;2024-02-21T03:40:39;1;0;0
77538;PMS7003;67783;51.656;16.106;2024-02-21T03:43:40;4;1;0
77538;PMS7003;67783;51.656;16.106;2024-02-21T03:46:46;2;0;0
77538;PMS7003;67783;51.656;16.106;2024-02-21T03:49:47;1;0;0
77538;PMS7003;67783;51.656;16.106;2024-02-21T03:52:48;0;0;0
77538;PMS7003;67783;51.656;16.106;2024-02-21T03:55:53;5;1;0
77538;PMS7003;67783;51.656;16.106;2024-02-21T03:58:55;1;1;1
77538;PMS7003;67783;51.656;16.106;2024-02-21T04:02:06;3;1;0
77538;PMS7003;67783;51.656;16.106;2024-02-21T04:05:11;1;1;0
77538;PMS7003;67783;51.656;16.106;2024-02-21T04:08:12;1;0;0
77538;PMS7003;67783;51.656;16.106;2024-02-21T04:11:15;0;0;0
77538;PMS7003;67783;51.656;16.106;2024-02-21T04:14:19;0;0;0
77538;PMS7003;67783;51.656;16.106;2024-02-21T04:17:27;1;1;0
77538;PMS7003;67783;51.656;16.106;2024-02-21T04:20:28;0;0;0
77538;PMS7003;67783;51.656;16.106;2024-02-21T04:23:31;1;0;0
77538;PMS7003;67783;51.656;16.106;2024-02-21T04:26:32;2;0;0
77538;PMS7003;67783;51.656;16.106;2024-02-21T04:29:34;0;0;0
77538;PMS7003;67783;51.656;16.106;2024-02-21T04:32:36;2;0;0
77538;PMS7003;67783;51.656;16.106;2024-02-21T04:35:37;2;1;1
77538;PMS7003;67783;51.656;16.106;2024-02-21T04:38:42;0;0;0
77538;PMS7003;67783;51.656;16.106;2024-02-21T04:41:44;2;1;1
77538;PMS7003;67783;51.656;16.106;2024-02-21T04:44:45;0;0;0
77538;PMS7003;67783;51.656;16.106;2024-02-21T04:47:47;6;1;1
77538;PMS7003;67783;51.656;16.106;2024-02-21T04:50:49;1;0;0
77538;PMS7003;67783;51.656;16.106;2024-02-21T04:53:50;5;1;1
77538;PMS7003;67783;51.656;16.106;2024-02-21T04:56:52;1;1;1
77538;PMS7003;67783;51.656;16.106;2024-02-21T04:59:57;4;1;0
77538;PMS7003;67783;51.656;16.106;2024-02-21T05:02:58;3;1;0
77538;PMS7003;67783;51.656;16.106;2024-02-21T05:06:00;3;3;1
77538;PMS7003;67783;51.656;16.106;2024-02-21T05:09:01;2;2;2
77538;PMS7003;67783;51.656;16.106;2024-02-21T05:12:04;3;1;0
77538;PMS7003;67783;51.656;16.106;2024-02-21T05:15:06;2;2;1
77538;PMS7003;67783;51.656;16.106;2024-02-21T05:18:09;1;1;0
77538;PMS7003;67783;51.656;16.106;2024-02-21T05:21:13;2;2;2
77538;PMS7003;67783;51.656;16.106;2024-02-21T05:24:15;2;1;0
77538;PMS7003;67783;51.656;16.106;2024-02-21T05:27:17;1;1;0
77538;PMS7003;67783;51.656;16.106;2024-02-21T05:30:18;1;1;1
77538;PMS7003;67783;51.656;16.106;2024-02-21T05:33:20;3;2;2
77538;PMS7003;67783;51.656;16.106;2024-02-21T05:36:22;3;2;1
77538;PMS7003;67783;51.656;16.106;2024-02-21T05:39:23;1;1;0
77538;PMS7003;67783;51.656;16.106;2024-02-21T05:42:28;0;0;0
77538;PMS7003;67783;51.656;16.106;2024-02-21T05:45:30;0;0;0
77538;PMS7003;67783;51.656;16.106;2024-02-21T05:48:31;2;2;2
77538;PMS7003;67783;51.656;16.106;2024-02-21T05:51:33;3;2;1
77538;PMS7003;67783;51.656;16.106;2024-02-21T05:54:37;2;2;1
77538;PMS7003;67783;51.656;16.106;2024-02-21T05:57:49;1;0;0
77538;PMS7003;67783;51.656;16.106;2024-02-21T06:00:51;0;0;0
77538;PMS7003;67783;51.656;16.106;2024-02-21T06:03:52;0;0;0
77538;PMS7003;67783;51.656;16.106;2024-02-21T06:06:55;4;0;0
77538;PMS7003;67783;51.656;16.106;2024-02-21T06:09:56;2;1;0
77538;PMS7003;67783;51.656;16.106;2024-02-21T06:12:58;1;1;0
77538;PMS7003;67783;51.656;16.106;2024-02-21T06:15:59;6;0;0
77538;PMS7003;67783;51.656;16.106;2024-02-21T06:19:04;1;1;0
77538;PMS7003;67783;51.656;16.106;2024-02-21T06:22:05;0;0;0
77538;PMS7003;67783;51.656;16.106;2024-02-21T06:25:08;2;1;1
77538;PMS7003;67783;51.656;16.106;2024-02-21T06:28:10;2;1;1
77538;PMS7003;67783;51.656;16.106;2024-02-21T06:31:14;2;1;1
77538;PMS7003;67783;51.656;16.106;2024-02-21T06:34:25;2;1;0
77538;PMS7003;67783;51.656;16.106;2024-02-21T06:37:26;2;2;1
77538;PMS7003;67783;51.656;16.106;2024-02-21T06:40:28;0;0;0
77538;PMS7003;67783;51.656;16.106;2024-02-21T06:43:29;2;1;0
77538;PMS7003;67783;51.656;16.106;2024-02-21T06:46:31;1;1;0
77538;PMS7003;67783;51.656;16.106;2024-02-21T06:49:34;1;1;0
77538;PMS7003;67783;51.656;16.106;2024-02-21T06:52:37;2;1;1
77538;PMS7003;67783;51.656;16.106;2024-02-21T06:55:42;1;0;0
77538;PMS7003;67783;51.656;16.106;2024-02-21T06:58:44;1;1;0
77538;PMS7003;67783;51.656;16.106;2024-02-21T07:01:48;1;1;1
77538;PMS7003;67783;51.656;16.106;2024-02-21T07:04:51;1;1;1
77538;PMS7003;67783;51.656;16.106;2024-02-21T07:07:52;1;1;1
77538;PMS7003;67783;51.656;16.106;2024-02-21T07:11:03;1;1;1
77538;PMS7003;67783;51.656;16.106;2024-02-21T07:14:05;2;1;1
77538;PMS7003;67783;51.656;16.106;2024-02-21T07:17:06;3;2;2
77538;PMS7003;67783;51.656;16.106;2024-02-21T07:20:09;3;3;1
77538;PMS7003;67783;51.656;16.106;2024-02-21T07:23:10;1;1;1
77538;PMS7003;67783;51.656;16.106;2024-02-21T07:26:12;1;1;0
77538;PMS7003;67783;51.656;16.106;2024-02-21T07:29:14;3;3;2
77538;PMS7003;67783;51.656;16.106;2024-02-21T07:32:18;3;3;2
77538;PMS7003;67783;51.656;16.106;2024-02-21T07:35:20;1;1;1
77538;PMS7003;67783;51.656;16.106;2024-02-21T07:38:22;1;1;1
77538;PMS7003;67783;51.656;16.106;2024-02-21T07:41:24;3;2;1
77538;PMS7003;67783;51.656;16.106;2024-02-21T07:44:29;2;2;2
77538;PMS7003;67783;51.656;16.106;2024-02-21T07:47:39;1;1;1
77538;PMS7003;67783;51.656;16.106;2024-02-21T07:50:41;3;3;1
77538;PMS7003;67783;51.656;16.106;2024-02-21T07:53:42;4;3;3
77538;PMS7003;67783;51.656;16.106;2024-02-21T07:56:46;2;2;1
77538;PMS7003;67783;51.656;16.106;2024-02-21T07:59:48;2;1;1
77538;PMS7003;67783;51.656;16.106;2024-02-21T08:03:00;4;2;1
77538;PMS7003;67783;51.656;16.106;2024-02-21T08:06:02;2;2;1
77538;PMS7003;67783;51.656;16.106;2024-02-21T08:09:05;2;2;2
77538;PMS7003;67783;51.656;16.106;2024-02-21T08:12:06;2;2;1
77538;PMS7003;67783;51.656;16.106;2024-02-21T08:15:09;2;2;2
77538;PMS7003;67783;51.656;16.106;2024-02-21T08:18:20;3;3;1
77538;PMS7003;67783;51.656;16.106;2024-02-21T08:21:22;3;2;1
77538;PMS7003;67783;51.656;16.106;2024-02-21T08:24:23;1;1;1
77538;PMS7003;67783;51.656;16.106;2024-02-21T08:27:25;3;1;1
77538;PMS7003;67783;51.656;16.106;2024-02-21T08:30:27;4;1;1
77538;PMS7003;67783;51.656;16.106;2024-02-21T08:33:29;0;0;0
77538;PMS7003;67783;51.656;16.106;2024-02-21T08:36:34;2;1;1
77538;PMS7003;67783;51.656;16.106;2024-02-21T08:39:36;0;0;0
77538;PMS7003;67783;51.656;16.106;2024-02-21T08:42:41;2;1;1
77538;PMS7003;67783;51.656;16.106;2024-02-21T08:45:43;1;1;1
77538;PMS7003;67783;51.656;16.106;2024-02-21T08:48:44;2;2;1
77538;PMS7003;67783;51.656;16.106;2024-02-21T08:51:47;1;1;1
77538;PMS7003;67783;51.656;16.106;2024-02-21T08:54:56;0;0;0
77538;PMS7003;67783;51.656;16.106;2024-02-21T08:57:58;0;0;0
77538;PMS7003;67783;51.656;16.106;2024-02-21T09:01:01;3;2;1
77538;PMS7003;67783;51.656;16.106;2024-02-21T09:04:05;2;1;1
77538;PMS7003;67783;51.656;16.106;2024-02-21T09:07:06;1;1;1
77538;PMS7003;67783;51.656;16.106;2024-02-21T09:10:17;1;1;0
77538;PMS7003;67783;51.656;16.106;2024-02-21T09:13:18;1;1;1
77538;PMS7003;67783;51.656;16.106;2024-02-21T09:16:20;4;2;2
77538;PMS7003;67783;51.656;16.106;2024-02-21T09:19:22;2;1;1
77538;PMS7003;67783;51.656;16.106;2024-02-21T09:22:24;2;2;1
77538;PMS7003;67783;51.656;16.106;2024-02-21T09:25:38;2;2;1
77538;PMS7003;67783;51.656;16.106;2024-02-21T09:28:40;4;2;2
77538;PMS7003;67783;51.656;16.106;2024-02-21T09:31:42;1;1;0
77538;PMS7003;67783;51.656;16.106;2024-02-21T09:34:43;2;2;1
77538;PMS7003;67783;51.656;16.106;2024-02-21T09:37:45;2;1;1
77538;PMS7003;67783;51.656;16.106;2024-02-21T09:40:59;2;1;1
77538;PMS7003;67783;51.656;16.106;2024-02-21T09:44:07;1;1;1
77538;PMS7003;67783;51.656;16.106;2024-02-21T09:47:19;1;1;1
77538;PMS7003;67783;51.656;16.106;2024-02-21T09:50:27;2;0;0
77538;PMS7003;67783;51.656;16.106;2024-02-21T09:53:32;2;1;0
77538;PMS7003;67783;51.656;16.106;2024-02-21T09:56:38;2;2;1
77538;PMS7003;67783;51.656;16.106;2024-02-21T09:59:40;3;2;1
77538;PMS7003;67783;51.656;16.106;2024-02-21T10:02:44;1;0;0
77538;PMS7003;67783;51.656;16.106;2024-02-21T10:05:49;1;1;1
77538;PMS7003;67783;51.656;16.106;2024-02-21T10:08:53;4;4;2
77538;PMS7003;67783;51.656;16.106;2024-02-21T10:11:55;1;1;1
77538;PMS7003;67783;51.656;16.106;2024-02-21T10:15:02;3;2;2
77538;PMS7003;67783;51.656;16.106;2024-02-21T10:18:05;1;1;1
77538;PMS7003;67783;51.656;16.106;2024-02-21T10:21:10;3;3;2
77538;PMS7003;67783;51.656;16.106;2024-02-21T10:24:11;4;3;1
77538;PMS7003;67783;51.656;16.106;2024-02-21T10:27:13;0;0;0
77538;PMS7003;67783;51.656;16.106;2024-02-21T10:30:15;1;1;1
77538;PMS7003;67783;51.656;16.106;2024-02-21T10:33:18;3;3;1
77538;PMS7003;67783;51.656;16.106;2024-02-21T10:36:31;3;1;1
77538;PMS7003;67783;51.656;16.106;2024-02-21T10:39:33;3;2;1
77538;PMS7003;67783;51.656;16.106;2024-02-21T10:42:36;3;2;1
77538;PMS7003;67783;51.656;16.106;2024-02-21T10:45:40;1;1;1
77538;PMS7003;67783;51.656;16.106;2024-02-21T10:48:43;3;2;1
77538;PMS7003;67783;51.656;16.106;2024-02-21T10:51:52;3;2;1
77538;PMS7003;67783;51.656;16.106;2024-02-21T10:55:02;3;2;1
77538;PMS7003;67783;51.656;16.106;2024-02-21T10:58:05;4;3;2
77538;PMS7003;67783;51.656;16.106;2024-02-21T11:01:18;1;1;1
77538;PMS7003;67783;51.656;16.106;2024-02-21T11:04:20;2;2;2
77538;PMS7003;67783;51.656;16.106;2024-02-21T11:07:22;1;0;0
77538;PMS7003;67783;51.656;16.106;2024-02-21T11:10:25;2;2;1
77538;PMS7003;67783;51.656;16.106;2024-02-21T11:16:39;6;4;2
77538;PMS7003;67783;51.656;16.106;2024-02-21T11:19:43;3;3;1
77538;PMS7003;67783;51.656;16.106;2024-02-21T11:22:44;2;1;1
77538;PMS7003;67783;51.656;16.106;2024-02-21T11:25:48;2;2;1
77538;PMS7003;67783;51.656;16.106;2024-02-21T11:32:01;3;3;2
77538;PMS7003;67783;51.656;16.106;2024-02-21T11:35:04;2;2;1
77538;PMS7003;67783;51.656;16.106;2024-02-21T11:38:09;2;2;2
77538;PMS7003;67783;51.656;16.106;2024-02-21T11:41:25;3;2;2
77538;PMS7003;67783;51.656;16.106;2024-02-21T11:44:27;1;1;1
77538;PMS7003;67783;51.656;16.106;2024-02-21T11:47:29;2;2;2
77538;PMS7003;67783;51.656;16.106;2024-02-21T11:50:30;2;2;1
77538;PMS7003;67783;51.656;16.106;2024-02-21T11:53:32;3;2;1
77538;PMS7003;67783;51.656;16.106;2024-02-21T11:56:34;2;2;2
77538;PMS7003;67783;51.656;16.106;2024-02-21T11:59:36;5;3;2
77538;PMS7003;67783;51.656;16.106;2024-02-21T12:02:41;3;2;2
77538;PMS7003;67783;51.656;16.106;2024-02-21T12:05:46;5;3;1
77538;PMS7003;67783;51.656;16.106;2024-02-21T12:08:48;2;2;2
77538;PMS7003;67783;51.656;16.106;2024-02-21T12:15:01;1;1;1
77538;PMS7003;67783;51.656;16.106;2024-02-21T12:18:06;1;1;1
77538;PMS7003;67783;51.656;16.106;2024-02-21T12:21:08;3;2;2
77538;PMS7003;67783;51.656;16.106;2024-02-21T12:24:15;1;1;1
77538;PMS7003;67783;51.656;16.106;2024-02-21T12:27:20;2;2;1
77538;PMS7003;67783;51.656;16.106;2024-02-21T12:30:24;4;1;1
77538;PMS7003;67783;51.656;16.106;2024-02-21T12:33:29;1;1;0
77538;PMS7003;67783;51.656;16.106;2024-02-21T12:36:32;2;2;1
77538;PMS7003;67783;51.656;16.106;2024-02-21T12:39:34;3;2;2
77538;PMS7003;67783;51.656;16.106;2024-02-21T12:42:36;2;2;1
77538;PMS7003;67783;51.656;16.106;2024-02-21T12:45:37;2;2;1
77538;PMS7003;67783;51.656;16.106;2024-02-21T12:48:39;2;2;2
77538;PMS7003;67783;51.656;16.106;2024-02-21T12:51:40;5;3;1
77538;PMS7003;67783;51.656;16.106;2024-02-21T12:54:52;1;1;1
77538;PMS7003;67783;51.656;16.106;2024-02-21T12:58:02;0;0;0
77538;PMS7003;67783;51.656;16.106;2024-02-21T13:01:22;3;2;1
77538;PMS7003;67783;51.656;16.106;2024-02-21T13:04:56;1;1;1
77538;PMS7003;67783;51.656;16.106;2024-02-21T13:08:06;2;2;1
77538;PMS7003;67783;51.656;16.106;2024-02-21T13:11:08;1;1;1
77538;PMS7003;67783;51.656;16.106;2024-02-21T13:14:15;2;2;1
77538;PMS7003;67783;51.656;16.106;2024-02-21T13:17:17;3;3;2
77538;PMS7003;67783;51.656;16.106;2024-02-21T13:20:19;2;1;1
77538;PMS7003;67783;51.656;16.106;2024-02-21T13:23:22;3;1;1
77538;PMS7003;67783;51.656;16.106;2024-02-21T13:26:23;5;3;2
77538;PMS7003;67783;51.656;16.106;2024-02-21T13:29:25;2;2;2
77538;PMS7003;67783;51.656;16.106;2024-02-21T13:32:27;4;1;1
77538;PMS7003;67783;51.656;16.106;2024-02-21T13:35:32;1;1;1
77538;PMS7003;67783;51.656;16.106;2024-02-21T13:38:33;4;1;1
77538;PMS7003;67783;51.656;16.106;2024-02-21T13:41:40;3;3;2
77538;PMS7003;67783;51.656;16.106;2024-02-21T13:44:43;3;3;3
77538;PMS7003;67783;51.656;16.106;2024-02-21T13:47:44;3;3;1
77538;PMS7003;67783;51.656;16.106;2024-02-21T13:50:52;2;2;1
77538;PMS7003;67783;51.656;16.106;2024-02-21T13:53:54;3;1;1
77538;PMS7003;67783;51.656;16.106;2024-02-21T13:56:56;1;1;1
77538;PMS7003;67783;51.656;16.106;2024-02-21T13:59:57;3;3;2
77538;PMS7003;67783;51.656;16.106;2024-02-21T14:03:00;2;2;2
77538;PMS7003;67783;51.656;16.106;2024-02-21T14:06:02;3;1;1
77538;PMS7003;67783;51.656;16.106;2024-02-21T14:09:05;2;1;1
77538;PMS7003;67783;51.656;16.106;2024-02-21T14:12:10;5;3;2
77538;PMS7003;67783;51.656;16.106;2024-02-21T14:15:12;1;1;1
77538;PMS7003;67783;51.656;16.106;2024-02-21T14:18:14;1;1;1
77538;PMS7003;67783;51.656;16.106;2024-02-21T14:21:17;2;1;1
77538;PMS7003;67783;51.656;16.106;2024-02-21T14:24:18;2;2;1
77538;PMS7003;67783;51.656;16.106;2024-02-21T14:27:20;1;1;1
77538;PMS7003;67783;51.656;16.106;2024-02-21T14:30:21;1;1;1
77538;PMS7003;67783;51.656;16.106;2024-02-21T14:33:27;2;2;1
77538;PMS7003;67783;51.656;16.106;2024-02-21T14:36:29;3;1;1
77538;PMS7003;67783;51.656;16.106;2024-02-21T14:39:31;6;2;2
77538;PMS7003;67783;51.656;16.106;2024-02-21T14:42:36;2;2;2
77538;PMS7003;67783;51.656;16.106;2024-02-21T14:45:37;2;2;1
77538;PMS7003;67783;51.656;16.106;2024-02-21T14:48:47;4;2;2
77538;PMS7003;67783;51.656;16.106;2024-02-21T14:51:51;1;1;1
77538;PMS7003;67783;51.656;16.106;2024-02-21T14:54:56;2;2;1
77538;PMS7003;67783;51.656;16.106;2024-02-21T14:57:57;2;2;1
77538;PMS7003;67783;51.656;16.106;2024-02-21T15:01:07;2;2;1
77538;PMS7003;67783;51.656;16.106;2024-02-21T15:04:17;4;2;1
77538;PMS7003;67783;51.656;16.106;2024-02-21T15:07:19;2;2;2
77538;PMS7003;67783;51.656;16.106;2024-02-21T15:10:36;4;3;2
77538;PMS7003;67783;51.656;16.106;2024-02-21T15:13:48;2;2;1
77538;PMS7003;67783;51.656;16.106;2024-02-21T15:17:12;2;2;1
77538;PMS7003;67783;51.656;16.106;2024-02-21T15:20:30;2;2;1
77538;PMS7003;67783;51.656;16.106;2024-02-21T15:30:35;2;2;1
77538;PMS7003;67783;51.656;16.106;2024-02-21T15:33:56;6;2;1
77538;PMS7003;67783;51.656;16.106;2024-02-21T15:37:03;1;1;1
77538;PMS7003;67783;51.656;16.106;2024-02-21T15:40:10;3;2;1
77538;PMS7003;67783;51.656;16.106;2024-02-21T15:43:19;3;2;1
77538;PMS7003;67783;51.656;16.106;2024-02-21T15:46:21;3;3;2
77538;PMS7003;67783;51.656;16.106;2024-02-21T15:49:23;9;2;2
77538;PMS7003;67783;51.656;16.106;2024-02-21T15:52:26;5;2;2
77538;PMS7003;67783;51.656;16.106;2024-02-21T15:55:33;4;3;2
77538;PMS7003;67783;51.656;16.106;2024-02-21T15:58:41;3;3;2
77538;PMS7003;67783;51.656;16.106;2024-02-21T16:01:42;1;1;1
77538;PMS7003;67783;51.656;16.106;2024-02-21T16:04:46;1;1;1
77538;PMS7003;67783;51.656;16.106;2024-02-21T16:07:50;4;1;1
77538;PMS7003;67783;51.656;16.106;2024-02-21T16:10:55;3;2;1
77538;PMS7003;67783;51.656;16.106;2024-02-21T16:14:01;1;1;1
77538;PMS7003;67783;51.656;16.106;2024-02-21T16:17:13;8;3;1
77538;PMS7003;67783;51.656;16.106;2024-02-21T16:20:18;2;2;1
77538;PMS7003;67783;51.656;16.106;2024-02-21T16:23:30;1;1;1
77538;PMS7003;67783;51.656;16.106;2024-02-21T16:26:36;2;1;1
77538;PMS7003;67783;51.656;16.106;2024-02-21T16:29:40;3;2;2
77538;PMS7003;67783;51.656;16.106;2024-02-21T16:32:53;3;3;3
77538;PMS7003;67783;51.656;16.106;2024-02-21T16:35:55;6;5;4
77538;PMS7003;67783;51.656;16.106;2024-02-21T16:38:57;7;7;5
77538;PMS7003;67783;51.656;16.106;2024-02-21T16:42:01;9;6;6
77538;PMS7003;67783;51.656;16.106;2024-02-21T16:45:05;17;11;7
77538;PMS7003;67783;51.656;16.106;2024-02-21T16:48:14;31;19;10
77538;PMS7003;67783;51.656;16.106;2024-02-21T16:51:16;32;25;15
77538;PMS7003;67783;51.656;16.106;2024-02-21T16:54:21;34;25;14
77538;PMS7003;67783;51.656;16.106;2024-02-21T16:57:24;28;22;14
77538;PMS7003;67783;51.656;16.106;2024-02-21T17:00:25;22;15;11
77538;PMS7003;67783;51.656;16.106;2024-02-21T17:03:36;22;18;11
77538;PMS7003;67783;51.656;16.106;2024-02-21T17:06:38;21;19;12
77538;PMS7003;67783;51.656;16.106;2024-02-21T17:09:40;16;15;10
77538;PMS7003;67783;51.656;16.106;2024-02-21T17:12:41;15;11;8
77538;PMS7003;67783;51.656;16.106;2024-02-21T17:15:43;12;12;8
77538;PMS7003;67783;51.656;16.106;2024-02-21T17:18:44;26;20;14
77538;PMS7003;67783;51.656;16.106;2024-02-21T17:21:48;37;29;19
77538;PMS7003;67783;51.656;16.106;2024-02-21T17:24:53;35;29;20
77538;PMS7003;67783;51.656;16.106;2024-02-21T17:27:54;47;36;22
77538;PMS7003;67783;51.656;16.106;2024-02-21T17:30:56;41;35;20
77538;PMS7003;67783;51.656;16.106;2024-02-21T17:33:57;50;37;25
77538;PMS7003;67783;51.656;16.106;2024-02-21T17:37:02;48;35;21
77538;PMS7003;67783;51.656;16.106;2024-02-21T17:40:14;41;30;19
77538;PMS7003;67783;51.656;16.106;2024-02-21T17:43:16;33;28;18
77538;PMS7003;67783;51.656;16.106;2024-02-21T17:46:18;37;28;18
77538;PMS7003;67783;51.656;16.106;2024-02-21T17:49:22;47;37;22
77538;PMS7003;67783;51.656;16.106;2024-02-21T17:52:24;51;39;24
77538;PMS7003;67783;51.656;16.106;2024-02-21T17:55:34;57;41;26
77538;PMS7003;67783;51.656;16.106;2024-02-21T17:58:37;52;40;21
77538;PMS7003;67783;51.656;16.106;2024-02-21T18:01:39;57;43;27
77538;PMS7003;67783;51.656;16.106;2024-02-21T18:04:41;51;39;25
77538;PMS7003;67783;51.656;16.106;2024-02-21T18:07:45;41;33;21
77538;PMS7003;67783;51.656;16.106;2024-02-21T18:10:55;50;34;21
77538;PMS7003;67783;51.656;16.106;2024-02-21T18:13:57;37;30;18
77538;PMS7003;67783;51.656;16.106;2024-02-21T18:17:05;37;31;20
77538;PMS7003;67783;51.656;16.106;2024-02-21T18:20:07;31;26;15
77538;PMS7003;67783;51.656;16.106;2024-02-21T18:23:09;27;26;15
77538;PMS7003;67783;51.656;16.106;2024-02-21T18:26:17;23;23;15
77538;PMS7003;67783;51.656;16.106;2024-02-21T18:29:18;24;21;13
77538;PMS7003;67783;51.656;16.106;2024-02-21T18:32:20;21;17;12
77538;PMS7003;67783;51.656;16.106;2024-02-21T18:35:27;16;16;11
77538;PMS7003;67783;51.656;16.106;2024-02-21T18:38:34;14;12;9
77538;PMS7003;67783;51.656;16.106;2024-02-21T18:41:39;10;7;4
77538;PMS7003;67783;51.656;16.106;2024-02-21T18:44:45;12;10;6
77538;PMS7003;67783;51.656;16.106;2024-02-21T18:47:47;12;11;8
77538;PMS7003;67783;51.656;16.106;2024-02-21T18:50:53;12;12;7
77538;PMS7003;67783;51.656;16.106;2024-02-21T18:53:58;11;11;6
77538;PMS7003;67783;51.656;16.106;2024-02-21T18:57:03;9;9;7
77538;PMS7003;67783;51.656;16.106;2024-02-21T19:00:05;13;11;8
77538;PMS7003;67783;51.656;16.106;2024-02-21T19:03:10;10;9;7
77538;PMS7003;67783;51.656;16.106;2024-02-21T19:06:13;11;11;7
77538;PMS7003;67783;51.656;16.106;2024-02-21T19:09:15;11;9;7
77538;PMS7003;67783;51.656;16.106;2024-02-21T19:12:23;21;14;10
77538;PMS7003;67783;51.656;16.106;2024-02-21T19:15:25;14;12;8
77538;PMS7003;67783;51.656;16.106;2024-02-21T19:18:27;9;8;5
77538;PMS7003;67783;51.656;16.106;2024-02-21T19:21:29;11;10;7
77538;PMS7003;67783;51.656;16.106;2024-02-21T19:24:31;8;8;5
77538;PMS7003;67783;51.656;16.106;2024-02-21T19:27:33;5;5;5
77538;PMS7003;67783;51.656;16.106;2024-02-21T19:30:34;7;7;6
77538;PMS7003;67783;51.656;16.106;2024-02-21T19:33:40;7;5;4
77538;PMS7003;67783;51.656;16.106;2024-02-21T19:36:41;9;6;5
77538;PMS7003;67783;51.656;16.106;2024-02-21T19:39:43;5;4;3
77538;PMS7003;67783;51.656;16.106;2024-02-21T19:42:46;7;4;3
77538;PMS7003;67783;51.656;16.106;2024-02-21T19:45:47;7;6;4
77538;PMS7003;67783;51.656;16.106;2024-02-21T19:49:00;6;6;4
77538;PMS7003;67783;51.656;16.106;2024-02-21T19:52:02;7;5;3
77538;PMS7003;67783;51.656;16.106;2024-02-21T19:55:04;9;7;6
77538;PMS7003;67783;51.656;16.106;2024-02-21T19:58:06;7;5;3
77538;PMS7003;67783;51.656;16.106;2024-02-21T20:01:08;8;7;4
77538;PMS7003;67783;51.656;16.106;2024-02-21T20:04:09;7;7;5
77538;PMS7003;67783;51.656;16.106;2024-02-21T20:07:13;7;6;4
77538;PMS7003;67783;51.656;16.106;2024-02-21T20:10:18;8;6;4
77538;PMS7003;67783;51.656;16.106;2024-02-21T20:13:20;9;8;7
77538;PMS7003;67783;51.656;16.106;2024-02-21T20:16:22;14;9;6
77538;PMS7003;67783;51.656;16.106;2024-02-21T20:19:24;10;8;6
77538;PMS7003;67783;51.656;16.106;2024-02-21T20:22:26;9;8;5
77538;PMS7003;67783;51.656;16.106;2024-02-21T20:25:28;11;8;6
77538;PMS7003;67783;51.656;16.106;2024-02-21T20:28:29;14;11;8
77538;PMS7003;67783;51.656;16.106;2024-02-21T20:31:34;6;6;4